Time;durP1;ratioP1;P1;durP2;ratioP2;P2;SDS_P1;SDS_P2;PMS_P1;PMS_P2;Temp;Humidity;BMP_temperature;BMP_pressure;BME280_temperature;BME280_humidity;BME280_pressure;Samples;Min_cycle;Max_cycle;Signal;HPM_P1;HPM_P2
2023/01/04 00:02:04;;;;;;;17.23;14.07;;;12.70;99.90;;;;;;5032478;28;20036;-62
2023/01/04 00:04:29;;;;;;;16.00;13.65;;;12.80;99.90;;;;;;5031548;28;20045;-62
2023/01/04 00:06:55;;;;;;;14.73;13.13;;;12.80;77.80;;;;;;5032932;28;20083;-62
2023/01/04 00:09:21;;;;;;;14.13;12.07;;;12.80;32.80;;;;;;5031223;28;20048;-62
2023/01/04 00:11:47;;;;;;;17.90;13.10;;;12.80;17.20;;;;;;5034910;28;20029;-62
2023/01/04 00:14:13;;;;;;;16.98;14.02;;;12.80;8.20;;;;;;5031074;28;20029;-62
2023/01/04 00:16:39;;;;;;;16.52;13.88;;;12.80;4.50;;;;;;5032878;28;20076;-63
2023/01/04 00:19:05;;;;;;;16.63;13.13;;;12.90;1.00;;;;;;5020921;28;20379;-62
2023/01/04 00:21:31;;;;;;;15.98;13.00;;;12.80;1.00;;;;;;5032538;28;20080;-63
2023/01/04 00:23:59;;;;;;;15.82;13.70;;;12.80;1.00;;;;;;5033083;28;20037;-62
2023/01/04 00:26:30;;;;;;;16.85;13.20;;;12.80;1.00;;;;;;5047531;28;20451;-62
2023/01/04 00:29:04;;;;;;;18.38;14.07;;;12.70;1.00;;;;;;5031706;28;20021;-62
2023/01/04 00:31:30;;;;;;;19.67;13.65;;;12.80;1.00;;;;;;5029809;28;20116;-62
2023/01/04 00:33:58;;;;;;;18.33;14.43;;;12.70;1.00;;;;;;5026996;28;20112;-62
2023/01/04 00:36:24;;;;;;;18.88;13.88;;;12.70;1.00;;;;;;5032522;28;20030;-62
2023/01/04 00:39:09;;;;;;;18.00;14.65;;;12.80;1.00;;;;;;5020395;28;20037;-62
2023/01/04 00:41:36;;;;;;;14.98;13.07;;;12.80;1.00;;;;;;5032769;28;20048;-62
2023/01/04 00:44:03;;;;;;;17.25;13.50;;;12.80;1.00;;;;;;5018996;28;20022;-62
2023/01/04 00:46:29;;;;;;;13.80;12.27;;;12.80;1.00;;;;;;5032133;28;20029;-62
2023/01/04 00:48:55;;;;;;;18.33;14.13;;;12.80;1.00;;;;;;5032340;28;20050;-62
2023/01/04 00:51:20;;;;;;;18.52;14.18;;;12.70;1.00;;;;;;5032556;28;20032;-62
2023/01/04 00:53:46;;;;;;;15.27;13.48;;;12.70;1.00;;;;;;5032434;28;20021;-62
2023/01/04 00:56:11;;;;;;;15.63;13.27;;;12.70;1.00;;;;;;5032386;28;20112;-62
2023/01/04 00:58:37;;;;;;;15.50;13.18;;;12.70;1.00;;;;;;5028427;28;20034;-62
2023/01/04 01:01:06;;;;;;;19.08;12.90;;;12.70;1.00;;;;;;5032388;28;20128;-62
2023/01/04 01:03:33;;;;;;;14.85;12.82;;;12.80;1.00;;;;;;5031007;28;20053;-62
2023/01/04 01:06:03;;;;;;;14.82;12.65;;;12.70;1.00;;;;;;5032170;28;20037;-62
2023/01/04 01:08:29;;;;;;;14.50;12.95;;;12.60;1.00;;;;;;5030533;28;20376;-62
2023/01/04 01:11:01;;;;;;;15.05;12.77;;;12.80;1.00;;;;;;5023323;28;20116;-62
2023/01/04 01:13:26;;;;;;;15.73;13.80;;;12.80;1.00;;;;;;5028082;28;20361;-62
2023/01/04 01:15:52;;;;;;;14.45;12.45;;;12.80;1.00;;;;;;5032281;28;20095;-63
2023/01/04 01:18:18;;;;;;;15.48;13.85;;;12.70;1.00;;;;;;5030480;28;20103;-62
2023/01/04 01:20:44;;;;;;;13.63;11.77;;;12.70;1.00;;;;;;5031808;28;20025;-62
2023/01/04 01:23:14;;;;;;;14.00;12.50;;;12.60;1.00;;;;;;5031944;28;20018;-62
2023/01/04 01:25:40;;;;;;;15.68;13.93;;;12.70;1.00;;;;;;5031818;28;20065;-63
2023/01/04 01:28:07;;;;;;;14.80;12.80;;;12.70;1.00;;;;;;5031849;28;20025;-62
2023/01/04 01:30:34;;;;;;;15.65;13.27;;;12.80;1.00;;;;;;5027732;28;20037;-62
2023/01/04 01:32:59;;;;;;;14.45;12.77;;;12.70;1.00;;;;;;5031426;28;20109;-62
2023/01/04 01:35:25;;;;;;;13.75;12.35;;;12.70;1.00;;;;;;5031937;28;20064;-63
2023/01/04 01:37:51;;;;;;;15.82;12.73;;;12.70;1.00;;;;;;5030504;28;20037;-62
2023/01/04 01:40:16;;;;;;;14.38;12.52;;;12.70;1.00;;;;;;5031785;28;20018;-64
2023/01/04 01:42:42;;;;;;;15.93;13.55;;;12.80;1.00;;;;;;5030092;28;20040;-62
2023/01/04 01:45:47;;;;;;;15.25;13.10;;;12.80;1.00;;;;;;5031116;28;20483;-62
2023/01/04 01:48:24;;;;;;;15.93;13.18;;;12.80;1.00;;;;;;5029520;28;20045;-63
2023/01/04 01:50:54;;;;;;;14.38;11.90;;;12.80;1.00;;;;;;5031863;28;20014;-62
2023/01/04 01:53:21;;;;;;;14.90;12.57;;;12.70;1.00;;;;;;5022505;28;20037;-63
2023/01/04 01:55:49;;;;;;;13.65;12.25;;;12.70;1.00;;;;;;5030052;28;20578;-63
2023/01/04 01:58:27;;;;;;;16.42;11.88;;;12.80;1.00;;;;;;5026642;28;20018;-62
2023/01/04 02:00:52;;;;;;;14.43;12.48;;;12.70;1.00;;;;;;5030903;28;20045;-62
2023/01/04 02:03:21;;;;;;;16.83;13.20;;;12.80;1.00;;;;;;5031220;28;20028;-62
2023/01/04 02:05:51;;;;;;;14.35;12.57;;;12.80;1.00;;;;;;5028816;28;20033;-62
2023/01/04 02:08:21;;;;;;;15.02;13.23;;;12.70;1.00;;;;;;5027416;28;20026;-62
2023/01/04 02:10:47;;;;;;;13.40;12.00;;;12.80;1.00;;;;;;5031068;28;20083;-62
2023/01/04 02:13:16;;;;;;;15.07;12.15;;;12.70;1.00;;;;;;5030905;28;20029;-62
2023/01/04 02:16:16;;;;;;;13.70;11.98;;;12.70;1.00;;;;;;5031331;28;20052;-62
2023/01/04 02:19:00;;;;;;;13.20;11.80;;;12.70;1.00;;;;;;5029110;28;20029;-62
2023/01/04 02:22:00;;;;;;;18.02;13.65;;;12.70;1.00;;;;;;5031724;28;20138;-62
2023/01/04 02:24:50;;;;;;;14.52;12.52;;;12.70;1.00;;;;;;5021240;28;20038;-62
2023/01/04 02:27:49;;;;;;;13.73;12.23;;;12.70;1.00;;;;;;5035119;28;20029;-62
2023/01/04 02:30:33;;;;;;;14.27;12.77;;;12.70;1.00;;;;;;5029521;28;20033;-62
2023/01/04 02:33:12;;;;;;;18.90;14.82;;;12.80;1.00;;;;;;5035036;28;20037;-62
2023/01/04 02:36:24;;;;;;;14.45;12.90;;;12.80;1.00;;;;;;5035083;28;20052;-62
2023/01/04 02:39:09;;;;;;;14.35;12.88;;;12.80;1.00;;;;;;5029448;28;20195;-63
2023/01/04 02:41:51;;;;;;;15.10;13.52;;;12.70;1.00;;;;;;5034952;28;20056;-62
2023/01/04 02:51:10;;;;;;;14.75;13.25;;;12.70;1.00;;;;;;5030741;28;20478;-62
2023/01/04 02:53:39;;;;;;;16.60;13.98;;;12.60;1.00;;;;;;5023784;28;20029;-62
2023/01/04 02:56:10;;;;;;;14.82;13.02;;;12.60;1.00;;;;;;5035168;28;20018;-62
2023/01/04 02:59:27;;;;;;;14.45;12.93;;;12.60;1.00;;;;;;5032946;28;20025;-62
2023/01/04 03:08:00;;;;;;;15.38;13.15;;;12.70;1.00;;;;;;5028958;28;20033;-62
2023/01/04 03:10:37;;;;;;;16.02;14.32;;;12.60;1.00;;;;;;5022814;28;20121;-62
2023/01/04 03:13:26;;;;;;;15.32;13.27;;;12.60;1.00;;;;;;5032695;28;20025;-62
2023/01/04 03:15:55;;;;;;;16.42;14.55;;;12.70;1.00;;;;;;5031242;28;20084;-62
2023/01/04 03:18:30;;;;;;;15.25;13.65;;;12.70;1.00;;;;;;5023433;28;20033;-63
2023/01/04 03:20:58;;;;;;;15.18;13.55;;;12.70;1.00;;;;;;5034077;28;20029;-62
2023/01/04 03:36:22;;;;;;;16.23;13.95;;;12.60;1.00;;;;;;5033146;28;20131;-62
2023/01/04 03:50:56;;;;;;;14.07;12.35;;;12.50;1.00;;;;;;5033670;28;20036;-62
2023/01/04 03:53:23;;;;;;;16.60;13.52;;;12.50;1.00;;;;;;5027744;28;20017;-62
2023/01/04 03:55:50;;;;;;;14.30;12.80;;;12.60;1.00;;;;;;5033819;28;20034;-63
2023/01/04 03:58:18;;;;;;;15.82;13.82;;;12.60;1.00;;;;;;5033323;28;20018;-62
2023/01/04 04:00:45;;;;;;;13.77;12.32;;;12.50;1.00;;;;;;5027617;28;20033;-62
2023/01/04 04:03:11;;;;;;;14.63;13.10;;;12.50;1.00;;;;;;5033287;28;20017;-62
2023/01/04 04:08:27;;;;;;;17.15;14.52;;;12.60;1.00;;;;;;5033132;28;20044;-63
2023/01/04 04:13:47;;;;;;;16.00;14.00;;;12.50;1.00;;;;;;5031813;28;20029;-62
2023/01/04 04:16:13;;;;;;;14.77;13.20;;;12.60;1.00;;;;;;5033779;28;20207;-62
2023/01/04 04:18:40;;;;;;;15.13;13.55;;;12.60;1.00;;;;;;5032927;28;20024;-63
2023/01/04 04:21:05;;;;;;;13.45;12.05;;;12.50;1.00;;;;;;5033333;28;20041;-62
2023/01/04 04:23:31;;;;;;;15.20;13.45;;;12.40;1.00;;;;;;5029520;28;20025;-62
2023/01/04 04:25:57;;;;;;;14.88;13.35;;;12.40;1.00;;;;;;5033043;28;20079;-62
2023/01/04 04:28:22;;;;;;;15.90;13.88;;;12.40;1.00;;;;;;5029299;28;20436;-62
2023/01/04 04:30:48;;;;;;;16.63;14.10;;;12.40;1.00;;;;;;5033122;28;20025;-62
2023/01/04 04:33:14;;;;;;;16.35;14.40;;;12.50;1.00;;;;;;5026696;28;20467;-62
2023/01/04 04:35:40;;;;;;;16.23;13.77;;;12.50;1.00;;;;;;5032659;28;20025;-62
2023/01/04 04:38:05;;;;;;;15.88;14.18;;;12.50;1.00;;;;;;5028664;28;20024;-62
2023/01/04 04:43:15;;;;;;;16.90;14.10;;;12.40;1.00;;;;;;5030618;28;20032;-62
2023/01/04 04:45:41;;;;;;;15.10;13.50;;;12.40;1.00;;;;;;5024647;28;20116;-62
2023/01/04 04:48:06;;;;;;;14.52;13.00;;;12.50;1.00;;;;;;5031708;28;20132;-62
2023/01/04 04:50:32;;;;;;;15.27;13.65;;;12.30;1.00;;;;;;5022962;28;20041;-62
2023/01/04 04:52:58;;;;;;;15.45;13.52;;;12.40;1.00;;;;;;5031073;28;20078;-62
2023/01/04 04:55:24;;;;;;;16.48;14.73;;;12.40;1.00;;;;;;5020776;28;20029;-62
2023/01/04 04:57:51;;;;;;;15.30;13.45;;;12.40;1.00;;;;;;5032657;28;20033;-62
2023/01/04 05:00:16;;;;;;;15.60;13.23;;;12.40;1.00;;;;;;5025942;28;20037;-62
2023/01/04 05:02:42;;;;;;;16.58;13.93;;;12.40;1.00;;;;;;5031066;28;20384;-63
2023/01/04 05:05:08;;;;;;;16.42;14.20;;;12.50;1.00;;;;;;5029106;28;20124;-62
2023/01/04 05:07:33;;;;;;;16.50;14.57;;;12.40;1.00;;;;;;5031698;28;20506;-62
2023/01/04 05:09:59;;;;;;;16.63;14.73;;;12.40;1.00;;;;;;5026704;28;20528;-62
2023/01/04 05:15:09;;;;;;;15.38;13.40;;;12.40;1.00;;;;;;5023684;28;20036;-63
2023/01/04 05:17:35;;;;;;;15.63;14.02;;;12.40;1.00;;;;;;5030279;28;20108;-63
2023/01/04 05:20:01;;;;;;;15.30;13.68;;;12.40;1.00;;;;;;5031999;28;20131;-62
2023/01/04 05:22:27;;;;;;;15.98;14.27;;;12.40;1.00;;;;;;5031629;28;20040;-62
2023/01/04 05:24:52;;;;;;;15.73;14.05;;;12.40;1.00;;;;;;5031936;28;20387;-63
2023/01/04 05:27:18;;;;;;;15.10;12.93;;;12.40;1.00;;;;;;5028812;28;20375;-62
2023/01/04 05:32:27;;;;;;;16.80;15.00;;;12.40;1.00;;;;;;5032008;28;20438;-62
2023/01/04 05:35:02;;;;;;;16.65;14.80;;;12.40;1.00;;;;;;5028017;28;20045;-62
2023/01/04 05:37:28;;;;;;;15.45;13.88;;;12.40;1.00;;;;;;5032053;28;20390;-62
2023/01/04 05:39:54;;;;;;;15.35;13.45;;;12.30;1.00;;;;;;5026853;28;20108;-62
2023/01/04 05:42:26;;;;;;;16.67;14.23;;;12.30;1.00;;;;;;5022104;28;20037;-62
2023/01/04 05:44:54;;;;;;;16.10;14.40;;;12.40;1.00;;;;;;5019505;28;20471;-62
2023/01/04 05:47:21;;;;;;;15.88;14.27;;;12.40;1.00;;;;;;5031606;28;20061;-62
2023/01/04 05:49:47;;;;;;;16.33;14.55;;;12.20;1.00;;;;;;5025424;28;20125;-62
2023/01/04 05:52:13;;;;;;;16.33;13.90;;;12.30;1.00;;;;;;5022495;28;20045;-62
2023/01/04 05:54:39;;;;;;;18.95;15.30;;;12.30;1.00;;;;;;5030210;28;20026;-62
2023/01/04 05:57:30;;;;;;;17.52;15.57;;;12.30;1.00;;;;;;5031786;28;20538;-62
2023/01/04 06:00:06;;;;;;;19.52;15.73;;;12.30;1.00;;;;;;5026336;28;20064;-63
2023/01/04 06:02:32;;;;;;;15.52;13.63;;;12.20;1.00;;;;;;5036008;28;20017;-63
2023/01/04 06:04:59;;;;;;;16.10;14.50;;;12.30;1.00;;;;;;5035299;28;20477;-63
2023/01/04 06:07:26;;;;;;;18.58;14.35;;;12.20;1.00;;;;;;5035507;28;20037;-63
2023/01/04 06:09:51;;;;;;;17.10;14.75;;;12.30;1.00;;;;;;5024785;28;20088;-63
2023/01/04 06:19:01;;;;;;;16.42;14.45;;;12.20;1.00;;;;;;5017581;28;20483;-63
2023/01/04 06:21:27;;;;;;;18.13;15.13;;;12.20;1.00;;;;;;5034073;28;20021;-63
2023/01/04 06:23:53;;;;;;;17.50;15.52;;;12.20;1.00;;;;;;5034470;28;20112;-63
2023/01/04 06:26:19;;;;;;;19.55;15.75;;;12.20;1.00;;;;;;5035246;28;20084;-63
2023/01/04 06:28:44;;;;;;;17.42;15.57;;;12.20;1.00;;;;;;5033440;28;20029;-63
2023/01/04 06:31:10;;;;;;;18.55;15.27;;;12.10;1.00;;;;;;5035476;28;20037;-63
2023/01/04 06:33:37;;;;;;;17.98;16.08;;;12.20;1.00;;;;;;5035066;28;20049;-63
2023/01/04 06:36:03;;;;;;;21.80;17.08;;;12.20;1.00;;;;;;5028109;28;20075;-63
2023/01/04 06:38:30;;;;;;;19.80;14.85;;;12.20;1.00;;;;;;5024284;28;20522;-63
2023/01/04 06:40:59;;;;;;;18.80;16.08;;;12.20;1.00;;;;;;5033286;28;20030;-63
2023/01/04 06:43:24;;;;;;;18.75;15.90;;;12.20;1.00;;;;;;5034370;28;20037;-63
2023/01/04 06:45:50;;;;;;;17.52;15.52;;;12.20;1.00;;;;;;5034618;28;20060;-63
2023/01/04 06:48:16;;;;;;;18.38;15.13;;;12.20;1.00;;;;;;5031863;28;20133;-62
2023/01/04 06:50:41;;;;;;;18.15;16.00;;;12.10;1.00;;;;;;5023951;28;20092;-63
2023/01/04 06:53:07;;;;;;;20.08;16.75;;;12.10;1.00;;;;;;5034903;28;20072;-62
2023/01/04 06:55:33;;;;;;;16.65;14.50;;;12.10;1.00;;;;;;5028177;28;20087;-63
2023/01/04 06:57:59;;;;;;;20.23;18.02;;;12.00;1.00;;;;;;5031211;28;20051;-63
2023/01/04 07:00:24;;;;;;;18.45;15.35;;;12.10;1.00;;;;;;5028576;28;20434;-63
2023/01/04 07:02:50;;;;;;;18.13;15.93;;;12.10;1.00;;;;;;5034217;28;20115;-63
2023/01/04 07:05:16;;;;;;;19.17;16.35;;;12.00;1.00;;;;;;5033136;28;20044;-63
2023/01/04 07:07:41;;;;;;;17.88;15.63;;;12.00;1.00;;;;;;5034410;28;20021;-63
2023/01/04 07:10:07;;;;;;;17.45;15.50;;;12.00;1.00;;;;;;5030688;28;20387;-63
2023/01/04 07:12:33;;;;;;;20.30;16.25;;;12.00;1.00;;;;;;5034625;28;20474;-63
2023/01/04 07:14:59;;;;;;;18.33;16.33;;;12.00;1.00;;;;;;5029962;28;20029;-63
2023/01/04 07:17:25;;;;;;;21.88;16.77;;;12.00;1.00;;;;;;5033390;28;20022;-63
2023/01/04 07:19:51;;;;;;;17.73;15.70;;;12.00;1.00;;;;;;5031217;28;20018;-63
2023/01/04 07:22:17;;;;;;;18.27;16.23;;;12.00;1.00;;;;;;5028429;28;20467;-63
2023/01/04 07:24:42;;;;;;;21.63;16.90;;;12.00;1.00;;;;;;5025300;28;20028;-63
2023/01/04 07:27:11;;;;;;;19.73;17.63;;;12.00;1.00;;;;;;5034054;28;20025;-63
2023/01/04 07:29:37;;;;;;;21.60;17.85;;;12.00;1.00;;;;;;5024528;28;20115;-63
2023/01/04 07:32:05;;;;;;;21.88;16.90;;;12.00;1.00;;;;;;5033886;28;20025;-63
2023/01/04 07:34:31;;;;;;;19.63;16.35;;;12.00;1.00;;;;;;5033862;28;20460;-63
2023/01/04 07:36:56;;;;;;;18.55;16.50;;;12.10;1.00;;;;;;5033587;28;20060;-63
2023/01/04 07:39:22;;;;;;;23.58;17.80;;;12.10;1.00;;;;;;5033647;28;20040;-63
2023/01/04 07:41:49;;;;;;;19.73;16.42;;;12.10;1.00;;;;;;5033726;28;20332;-63
2023/01/04 07:44:16;;;;;;;17.25;15.18;;;12.10;1.00;;;;;;5032590;28;20083;-63
2023/01/04 07:46:43;;;;;;;19.65;17.50;;;12.20;1.00;;;;;;5033530;28;20120;-62
2023/01/04 07:49:13;;;;;;;19.23;17.02;;;12.10;1.00;;;;;;5033482;28;20037;-63
2023/01/04 07:51:39;;;;;;;18.85;16.58;;;12.00;1.00;;;;;;5033706;28;20057;-63
2023/01/04 07:54:04;;;;;;;20.80;16.80;;;12.10;1.00;;;;;;5029274;28;20041;-63
2023/01/04 07:56:30;;;;;;;23.15;17.08;;;12.00;1.00;;;;;;5024818;28;20032;-63
2023/01/04 07:58:58;;;;;;;18.63;16.00;;;12.20;1.00;;;;;;5029750;28;20025;-64
2023/01/04 08:01:25;;;;;;;21.35;16.13;;;12.10;1.00;;;;;;5033560;28;20494;-66
2023/01/04 08:03:51;;;;;;;19.45;16.85;;;12.10;1.00;;;;;;5033768;28;20399;-65
2023/01/04 08:06:19;;;;;;;20.55;18.27;;;12.20;1.00;;;;;;5033001;28;20083;-67
2023/01/04 08:08:45;;;;;;;20.80;18.00;;;12.30;1.00;;;;;;5031519;28;20030;-66
2023/01/04 08:11:13;;;;;;;22.13;17.83;;;12.30;1.00;;;;;;5033317;28;20191;-64
2023/01/04 08:13:39;;;;;;;21.05;17.17;;;12.20;1.00;;;;;;5028702;28;20017;-61
2023/01/04 08:16:06;;;;;;;22.55;17.83;;;12.20;1.00;;;;;;5030728;28;20485;-61
2023/01/04 08:18:32;;;;;;;22.80;18.50;;;12.10;1.00;;;;;;5030092;28;20379;-65
2023/01/04 08:21:06;;;;;;;26.83;20.25;;;12.20;1.00;;;;;;5028559;28;20116;-75
2023/01/04 08:23:34;;;;;;;25.58;20.17;;;12.20;1.00;;;;;;5027437;28;20029;-70
2023/01/04 08:26:03;;;;;;;21.40;17.92;;;12.30;1.00;;;;;;5028401;28;20049;-68
2023/01/04 08:28:29;;;;;;;28.67;20.63;;;12.30;1.00;;;;;;5027638;28;20479;-67
2023/01/04 08:30:55;;;;;;;26.85;19.88;;;12.30;1.00;;;;;;5026405;28;20601;-65
2023/01/04 08:33:40;;;;;;;24.08;19.48;;;12.40;1.00;;;;;;5032601;28;20044;-65
2023/01/04 08:36:18;;;;;;;30.70;20.67;;;12.40;1.00;;;;;;5020268;28;20567;-69
2023/01/04 08:38:44;;;;;;;27.27;19.80;;;12.40;1.00;;;;;;5031066;28;20036;-62
2023/01/04 08:41:10;;;;;;;30.42;20.98;;;12.40;1.00;;;;;;5031351;28;20436;-61
2023/01/04 08:43:36;;;;;;;25.60;19.73;;;12.40;1.00;;;;;;5028272;28;20036;-62
2023/01/04 08:46:05;;;;;;;29.70;20.10;;;12.30;1.00;;;;;;5031204;28;20407;-60
2023/01/04 08:48:33;;;;;;;26.08;19.00;;;12.30;1.00;;;;;;5027108;28;20530;-69
2023/01/04 08:51:04;;;;;;;28.48;20.52;;;12.30;1.00;;;;;;5030762;28;20057;-61
2023/01/04 08:53:30;;;;;;;26.67;19.27;;;12.50;1.00;;;;;;5031409;28;20040;-66
2023/01/04 08:55:58;;;;;;;25.55;19.42;;;12.50;1.00;;;;;;5029892;28;20079;-66
2023/01/04 08:58:24;;;;;;;23.70;18.67;;;12.40;1.00;;;;;;5032347;28;20455;-62
2023/01/04 09:00:49;;;;;;;27.95;22.25;;;12.60;1.00;;;;;;5032294;28;20025;-64
2023/01/04 09:03:15;;;;;;;30.15;21.00;;;12.60;1.00;;;;;;5030567;28;20029;-62
2023/01/04 09:05:41;;;;;;;27.10;19.65;;;12.60;1.00;;;;;;5032160;28;20037;-59
2023/01/04 09:08:07;;;;;;;25.85;20.55;;;12.70;1.00;;;;;;5029251;28;20108;-62
2023/01/04 09:10:35;;;;;;;25.77;19.65;;;12.60;1.00;;;;;;5032274;28;20156;-61
2023/01/04 09:13:01;;;;;;;23.70;18.30;;;12.50;1.00;;;;;;5025803;28;20044;-63
2023/01/04 09:15:26;;;;;;;26.85;21.45;;;12.50;1.00;;;;;;5027006;28;20455;-62
2023/01/04 09:17:52;;;;;;;26.40;19.65;;;12.50;1.00;;;;;;5030486;28;20309;-64
2023/01/04 09:20:17;;;;;;;26.15;19.80;;;12.60;1.00;;;;;;5032186;28;20083;-61
2023/01/04 09:22:43;;;;;;;26.08;20.30;;;12.50;1.00;;;;;;5031614;28;20024;-50
2023/01/04 09:25:09;;;;;;;27.23;19.27;;;12.70;1.00;;;;;;5032036;28;20120;-62
2023/01/04 09:27:34;;;;;;;30.58;21.90;;;12.80;1.00;;;;;;5031590;28;20378;-60
2023/01/04 09:30:00;;;;;;;28.77;21.05;;;12.80;1.00;;;;;;5030401;28;20033;-60
2023/01/04 09:32:26;;;;;;;29.20;21.33;;;12.90;1.00;;;;;;5031534;28;20025;-62
2023/01/04 09:34:52;;;;;;;26.23;20.42;;;12.90;1.00;;;;;;5025499;28;20048;-62
2023/01/04 09:37:18;;;;;;;25.65;20.23;;;13.00;1.00;;;;;;5031545;28;20108;-60
2023/01/04 09:39:46;;;;;;;23.08;18.85;;;12.90;1.00;;;;;;5028600;28;20029;-61
2023/01/04 09:42:20;;;;;;;26.35;19.80;;;13.00;1.00;;;;;;5034559;28;20029;-62
2023/01/04 09:44:49;;;;;;;24.92;20.02;;;13.00;1.00;;;;;;5023482;28;20026;-61
2023/01/04 09:47:18;;;;;;;25.73;20.15;;;13.00;1.00;;;;;;5029744;28;20085;-64
2023/01/04 09:50:03;;;;;;;25.20;20.02;;;13.00;1.00;;;;;;5019629;28;20025;-60
2023/01/04 09:52:46;;;;;;;23.55;18.98;;;13.10;1.00;;;;;;5023469;28;20172;-60
2023/01/04 09:55:26;;;;;;;26.85;20.67;;;13.10;1.00;;;;;;5027348;28;20095;-60
2023/01/04 09:58:01;;;;;;;25.75;20.50;;;13.20;1.00;;;;;;5024257;28;20030;-55
2023/01/04 10:00:35;;;;;;;23.33;19.02;;;13.20;1.00;;;;;;5018689;28;20029;-65
2023/01/04 10:03:10;;;;;;;;;;;13.30;1.00;;;;;;5031281;28;20052;-65
2023/01/04 10:05:35;;;;;;;22.83;19.67;;;13.10;1.00;;;;;;5027311;28;20008;-65
2023/01/04 10:08:02;;;;;;;27.50;22.20;;;13.20;1.00;;;;;;5020029;28;20518;-65
2023/01/04 10:10:40;;;;;;;29.33;20.88;;;13.20;1.00;;;;;;5019958;28;20029;-66
2023/01/04 10:13:46;;;;;;;23.17;19.85;;;13.30;1.00;;;;;;5031212;28;20061;-64
2023/01/04 10:16:47;;;;;;;26.23;20.50;;;13.30;1.00;;;;;;5019561;28;20021;-64
2023/01/04 10:19:53;;;;;;;26.25;20.25;;;13.20;1.00;;;;;;5018246;28;20033;-71
2023/01/04 10:22:49;;;;;;;27.27;21.10;;;13.20;1.00;;;;;;5030148;28;20025;-61
2023/01/04 10:25:23;;;;;;;25.70;22.10;;;13.30;1.00;;;;;;5019932;28;20046;-62
2023/01/04 10:28:00;;;;;;;28.63;21.20;;;13.20;1.00;;;;;;5018666;28;20045;-66
2023/01/04 10:30:55;;;;;;;27.13;20.65;;;13.40;1.00;;;;;;5023480;28;20053;-67
2023/01/04 10:33:25;;;;;;;26.20;20.38;;;13.50;1.00;;;;;;5025895;28;20120;-61
2023/01/04 10:35:51;;;;;;;28.80;21.77;;;13.50;1.00;;;;;;5026512;28;20032;-64
2023/01/04 10:38:25;;;;;;;33.05;23.83;;;13.50;1.00;;;;;;5025309;28;20029;-70
2023/01/04 10:40:52;;;;;;;27.48;20.88;;;13.50;1.00;;;;;;5022755;28;20107;-64
2023/01/04 10:43:24;;;;;;;26.55;20.92;;;13.30;1.00;;;;;;5028061;28;20029;-66
2023/01/04 10:46:20;;;;;;;25.80;20.23;;;13.40;1.00;;;;;;5023262;28;20116;-63
2023/01/04 10:48:48;;;;;;;27.23;20.95;;;13.20;1.00;;;;;;5022768;28;20061;-60
2023/01/04 10:51:19;;;;;;;28.15;21.60;;;13.40;1.00;;;;;;5025976;28;20034;-60
2023/01/04 10:54:05;;;;;;;28.35;22.30;;;13.40;1.00;;;;;;5018069;28;20034;-60
2023/01/04 10:56:42;;;;;;;26.90;22.45;;;13.20;1.00;;;;;;5030412;28;20026;-66
2023/01/04 10:59:23;;;;;;;26.55;22.40;;;13.30;1.00;;;;;;5034959;28;20025;-58
2023/01/04 11:02:10;;;;;;;30.10;23.60;;;13.30;1.00;;;;;;5034671;28;20056;-59
2023/01/04 11:04:45;;;;;;;29.05;23.05;;;13.40;1.00;;;;;;5025571;28;20029;-55
2023/01/04 11:07:46;;;;;;;29.55;23.98;;;13.30;1.00;;;;;;5031510;28;20518;-59
2023/01/04 11:10:26;;;;;;;32.03;24.45;;;13.20;1.00;;;;;;5046754;28;20447;-54
2023/01/04 11:12:53;;;;;;;30.13;23.13;;;13.20;1.00;;;;;;5026785;28;20073;-59
2023/01/04 11:15:18;;;;;;;28.42;22.27;;;13.30;1.00;;;;;;5033268;28;20025;-58
2023/01/04 11:17:44;;;;;;;25.75;20.25;;;13.30;1.00;;;;;;5032984;28;20529;-59
2023/01/04 11:20:11;;;;;;;27.75;21.35;;;13.20;1.00;;;;;;5033935;28;20113;-67
2023/01/04 11:22:54;;;;;;;27.75;20.58;;;13.30;1.00;;;;;;5030307;28;20032;-65
2023/01/04 11:25:22;;;;;;;28.80;20.35;;;13.20;1.00;;;;;;5032345;28;20037;-65
2023/01/04 11:28:04;;;;;;;24.42;19.90;;;13.40;1.00;;;;;;5033667;28;20044;-65
2023/01/04 11:30:43;;;;;;;25.33;20.80;;;13.20;1.00;;;;;;5022029;28;20375;-62
2023/01/04 11:33:09;;;;;;;29.27;21.40;;;13.30;1.00;;;;;;5033784;28;20108;-63
2023/01/04 11:35:57;;;;;;;26.42;20.50;;;13.30;1.00;;;;;;5033890;28;20134;-63
2023/01/04 11:38:26;;;;;;;23.67;19.92;;;13.40;1.00;;;;;;5032555;28;20618;-63
2023/01/04 11:40:57;;;;;;;26.85;20.17;;;13.40;1.00;;;;;;5033710;28;20022;-64
2023/01/04 11:43:24;;;;;;;28.85;20.88;;;13.30;1.00;;;;;;5027280;28;20479;-66
2023/01/04 11:45:58;;;;;;;26.23;20.42;;;13.30;1.00;;;;;;5032594;28;20049;-63
2023/01/04 11:48:42;;;;;;;25.35;20.15;;;13.20;1.00;;;;;;5029252;28;20498;-67
2023/01/04 11:51:19;;;;;;;25.83;20.48;;;13.20;1.00;;;;;;5025355;28;20021;-74
2023/01/04 11:53:55;;;;;;;31.25;22.38;;;13.10;1.00;;;;;;5019546;28;20112;-73
2023/01/04 11:56:22;;;;;;;27.42;20.58;;;13.30;1.00;;;;;;5032654;28;20103;-66
2023/01/04 11:59:14;;;;;;;30.05;21.20;;;13.20;1.00;;;;;;5031882;28;20279;-69
2023/01/04 12:01:43;;;;;;;24.52;20.85;;;13.40;1.00;;;;;;5030547;28;20029;-65
2023/01/04 12:04:19;;;;;;;24.27;20.02;;;13.20;1.00;;;;;;5033062;28;20022;-65
2023/01/04 12:06:50;;;;;;;25.15;20.52;;;12.70;1.00;;;;;;5031884;28;20116;-66
2023/01/04 12:09:18;;;;;;;26.10;20.77;;;12.20;1.00;;;;;;5034940;28;20021;-65
2023/01/04 12:11:55;;;;;;;27.25;20.17;;;11.90;1.00;;;;;;5033253;28;20070;-66
2023/01/04 12:14:48;;;;;;;26.00;21.33;;;12.00;1.00;;;;;;5033059;28;20083;-67
2023/01/04 12:17:41;;;;;;;25.40;20.90;;;12.20;1.00;;;;;;5019676;28;20026;-67
2023/01/04 12:20:16;;;;;;;26.85;21.20;;;12.10;1.00;;;;;;5020845;28;20491;-68
2023/01/04 12:22:42;;;;;;;26.92;21.20;;;11.90;1.00;;;;;;5032932;28;20357;-72
2023/01/04 12:25:22;;;;;;;30.10;21.70;;;11.90;1.00;;;;;;5031137;28;20041;-72
2023/01/04 12:27:54;;;;;;;25.30;21.05;;;12.20;1.00;;;;;;5030288;28;20510;-72
2023/01/04 12:30:37;;;;;;;27.42;20.52;;;12.20;1.00;;;;;;5032915;28;20075;-73
2023/01/04 12:33:41;;;;;;;24.60;19.92;;;12.10;1.00;;;;;;5031284;28;20029;-72
2023/01/04 12:36:08;;;;;;;24.40;19.73;;;11.90;1.00;;;;;;5010644;28;20494;-72
2023/01/04 12:38:53;;;;;;;25.45;20.13;;;11.80;1.00;;;;;;5010158;28;20499;-71
2023/01/04 12:41:20;;;;;;;28.67;20.77;;;11.80;1.00;;;;;;5015364;28;20360;-72
2023/01/04 12:43:48;;;;;;;27.73;20.95;;;11.70;1.00;;;;;;5032153;28;20108;-72
2023/01/04 12:49:26;;;;;;;23.38;18.27;;;12.50;1.00;;;;;;5016174;28;20167;-69
2023/01/04 12:52:07;;;;;;;22.25;16.05;;;12.70;1.00;;;;;;5029181;28;20119;-69
2023/01/04 12:54:59;;;;;;;20.83;17.52;;;12.90;1.00;;;;;;5031924;28;20055;-70
2023/01/04 12:57:35;;;;;;;21.45;17.00;;;12.80;1.00;;;;;;5020457;28;20072;-67
2023/01/04 13:00:13;;;;;;;21.27;16.45;;;13.00;1.00;;;;;;5032432;28;20515;-68
2023/01/04 13:02:59;;;;;;;18.35;15.45;;;13.10;1.00;;;;;;5026139;28;20029;-68
2023/01/04 13:05:31;;;;;;;22.20;18.27;;;13.30;1.00;;;;;;5032678;28;20038;-68
2023/01/04 13:07:59;;;;;;;21.58;17.40;;;13.40;1.00;;;;;;5028851;28;20025;-68
2023/01/04 13:10:38;;;;;;;22.25;17.20;;;13.20;1.00;;;;;;5030615;28;20049;-68
2023/01/04 13:13:15;;;;;;;28.27;23.40;;;13.20;1.00;;;;;;5034302;28;20545;-68
2023/01/04 13:15:44;;;;;;;23.60;20.38;;;12.80;1.00;;;;;;5029596;28;20030;-68
2023/01/04 13:18:33;;;;;;;23.98;20.73;;;13.10;1.00;;;;;;5037209;28;20023;-68
2023/01/04 13:21:10;;;;;;;30.83;26.02;;;13.40;1.00;;;;;;5025432;28;20029;-68
2023/01/04 13:23:37;;;;;;;30.55;26.92;;;13.40;1.00;;;;;;5031779;28;20332;-68
2023/01/04 13:26:27;;;;;;;32.80;28.50;;;13.30;1.00;;;;;;5036640;28;20108;-68
2023/01/04 13:29:13;;;;;;;30.63;26.73;;;13.40;1.00;;;;;;5030362;28;20029;-69
2023/01/04 13:31:47;;;;;;;31.02;24.48;;;13.40;1.00;;;;;;5033587;28;20029;-68
2023/01/04 13:34:21;;;;;;;25.23;22.02;;;13.40;1.00;;;;;;5026864;28;20032;-64
2023/01/04 13:37:05;;;;;;;26.98;23.40;;;13.30;1.00;;;;;;5033962;28;20017;-63
2023/01/04 13:39:32;;;;;;;28.30;23.98;;;13.50;1.00;;;;;;5028574;28;20026;-61
2023/01/04 13:41:58;;;;;;;27.95;24.15;;;13.30;1.00;;;;;;5031227;28;20018;-63
2023/01/04 13:45:11;;;;;;;31.27;26.83;;;13.50;1.00;;;;;;5032000;28;20056;-50
2023/01/04 13:47:39;;;;;;;35.95;28.67;;;13.60;1.00;;;;;;4975330;28;20057;-59
2023/01/04 13:50:16;;;;;;;36.00;28.98;;;13.80;1.00;;;;;;4990812;28;20065;-60
2023/01/04 13:52:44;;;;;;;31.15;26.52;;;13.90;1.00;;;;;;5015318;28;20039;-60
2023/01/04 13:55:28;;;;;;;32.25;27.15;;;13.80;1.00;;;;;;5031716;28;20048;-60
2023/01/04 13:58:05;;;;;;;35.25;27.20;;;13.70;1.00;;;;;;5033510;28;20032;-60
2023/01/04 14:00:35;;;;;;;35.65;28.58;;;13.70;1.00;;;;;;5032252;28;20515;-59
2023/01/04 14:03:17;;;;;;;35.50;28.73;;;13.70;1.00;;;;;;5030769;28;20040;-58